sensor_id;sensor_type;location;lat;lon;timestamp;P1;durP1;ratioP1;P2;durP2;ratioP2
53881;SDS011;39794;55.782;37.452;2024-01-30T00:00:40;8.70;;;5.45;;
53881;SDS011;39794;55.782;37.452;2024-01-30T00:03:08;7.82;;;4.38;;
53881;SDS011;39794;55.782;37.452;2024-01-30T00:05:37;9.07;;;4.47;;
53881;SDS011;39794;55.782;37.452;2024-01-30T00:08:06;9.30;;;4.88;;
53881;SDS011;39794;55.782;37.452;2024-01-30T00:10:34;8.35;;;4.50;;
53881;SDS011;39794;55.782;37.452;2024-01-30T00:13:03;6.97;;;4.20;;
53881;SDS011;39794;55.782;37.452;2024-01-30T00:15:33;8.57;;;4.20;;
53881;SDS011;39794;55.782;37.452;2024-01-30T00:18:02;6.30;;;4.25;;
53881;SDS011;39794;55.782;37.452;2024-01-30T00:20:30;8.60;;;4.80;;
53881;SDS011;39794;55.782;37.452;2024-01-30T00:22:59;6.70;;;4.32;;
53881;SDS011;39794;55.782;37.452;2024-01-30T00:25:28;8.90;;;4.70;;
53881;SDS011;39794;55.782;37.452;2024-01-30T00:27:56;5.30;;;3.55;;
53881;SDS011;39794;55.782;37.452;2024-01-30T00:30:25;5.68;;;3.60;;
53881;SDS011;39794;55.782;37.452;2024-01-30T00:32:55;9.00;;;4.85;;
53881;SDS011;39794;55.782;37.452;2024-01-30T00:35:23;6.47;;;4.13;;
53881;SDS011;39794;55.782;37.452;2024-01-30T00:37:52;8.38;;;4.50;;
53881;SDS011;39794;55.782;37.452;2024-01-30T00:40:20;6.97;;;4.40;;
53881;SDS011;39794;55.782;37.452;2024-01-30T00:42:49;8.27;;;4.50;;
53881;SDS011;39794;55.782;37.452;2024-01-30T00:45:20;8.00;;;4.30;;
53881;SDS011;39794;55.782;37.452;2024-01-30T00:47:49;6.57;;;4.47;;
53881;SDS011;39794;55.782;37.452;2024-01-30T00:50:19;10.05;;;4.90;;
53881;SDS011;39794;55.782;37.452;2024-01-30T00:52:47;7.75;;;4.53;;
53881;SDS011;39794;55.782;37.452;2024-01-30T00:55:16;6.25;;;4.22;;
53881;SDS011;39794;55.782;37.452;2024-01-30T00:57:44;9.02;;;4.60;;
53881;SDS011;39794;55.782;37.452;2024-01-30T01:00:12;6.53;;;3.95;;
53881;SDS011;39794;55.782;37.452;2024-01-30T01:02:44;7.30;;;4.55;;
53881;SDS011;39794;55.782;37.452;2024-01-30T01:05:12;7.47;;;4.25;;
53881;SDS011;39794;55.782;37.452;2024-01-30T01:07:43;7.07;;;4.53;;
53881;SDS011;39794;55.782;37.452;2024-01-30T01:10:13;7.13;;;4.38;;
53881;SDS011;39794;55.782;37.452;2024-01-30T01:12:44;8.15;;;4.82;;
53881;SDS011;39794;55.782;37.452;2024-01-30T01:15:13;8.70;;;4.63;;
53881;SDS011;39794;55.782;37.452;2024-01-30T01:17:41;7.30;;;4.80;;
53881;SDS011;39794;55.782;37.452;2024-01-30T01:20:10;7.30;;;4.40;;
53881;SDS011;39794;55.782;37.452;2024-01-30T01:22:39;6.75;;;4.10;;
53881;SDS011;39794;55.782;37.452;2024-01-30T01:25:09;8.40;;;4.90;;
53881;SDS011;39794;55.782;37.452;2024-01-30T01:27:38;8.82;;;4.68;;
53881;SDS011;39794;55.782;37.452;2024-01-30T01:30:09;9.02;;;5.25;;
53881;SDS011;39794;55.782;37.452;2024-01-30T01:32:38;5.78;;;4.05;;
53881;SDS011;39794;55.782;37.452;2024-01-30T01:35:12;7.45;;;4.72;;
53881;SDS011;39794;55.782;37.452;2024-01-30T01:37:40;9.57;;;4.72;;
53881;SDS011;39794;55.782;37.452;2024-01-30T01:40:10;8.18;;;4.78;;
53881;SDS011;39794;55.782;37.452;2024-01-30T01:42:39;6.80;;;4.28;;
53881;SDS011;39794;55.782;37.452;2024-01-30T01:45:08;8.80;;;4.72;;
53881;SDS011;39794;55.782;37.452;2024-01-30T01:47:36;6.88;;;4.30;;
53881;SDS011;39794;55.782;37.452;2024-01-30T01:50:05;8.40;;;4.82;;
53881;SDS011;39794;55.782;37.452;2024-01-30T01:52:34;6.35;;;4.28;;
53881;SDS011;39794;55.782;37.452;2024-01-30T01:55:03;9.75;;;5.35;;
53881;SDS011;39794;55.782;37.452;2024-01-30T01:57:39;8.35;;;4.57;;
53881;SDS011;39794;55.782;37.452;2024-01-30T02:00:08;8.13;;;4.85;;
53881;SDS011;39794;55.782;37.452;2024-01-30T02:02:37;9.25;;;4.60;;
53881;SDS011;39794;55.782;37.452;2024-01-30T02:05:07;9.57;;;4.82;;
53881;SDS011;39794;55.782;37.452;2024-01-30T02:07:36;7.55;;;5.05;;
53881;SDS011;39794;55.782;37.452;2024-01-30T02:10:07;9.90;;;4.72;;
53881;SDS011;39794;55.782;37.452;2024-01-30T02:12:36;10.23;;;3.92;;
53881;SDS011;39794;55.782;37.452;2024-01-30T02:15:07;7.88;;;4.30;;
53881;SDS011;39794;55.782;37.452;2024-01-30T02:17:41;10.00;;;4.85;;
53881;SDS011;39794;55.782;37.452;2024-01-30T02:20:10;8.63;;;5.20;;
53881;SDS011;39794;55.782;37.452;2024-01-30T02:22:42;7.20;;;4.30;;
53881;SDS011;39794;55.782;37.452;2024-01-30T02:25:10;7.18;;;4.68;;
53881;SDS011;39794;55.782;37.452;2024-01-30T02:27:39;7.93;;;4.78;;
53881;SDS011;39794;55.782;37.452;2024-01-30T02:30:08;9.07;;;4.90;;
53881;SDS011;39794;55.782;37.452;2024-01-30T02:32:37;6.68;;;4.40;;
53881;SDS011;39794;55.782;37.452;2024-01-30T02:35:06;9.70;;;4.93;;
53881;SDS011;39794;55.782;37.452;2024-01-30T02:37:34;8.18;;;4.95;;
53881;SDS011;39794;55.782;37.452;2024-01-30T02:40:05;8.80;;;5.05;;
53881;SDS011;39794;55.782;37.452;2024-01-30T02:42:35;8.63;;;4.68;;
53881;SDS011;39794;55.782;37.452;2024-01-30T02:45:04;9.10;;;5.10;;
53881;SDS011;39794;55.782;37.452;2024-01-30T02:47:33;7.65;;;4.82;;
53881;SDS011;39794;55.782;37.452;2024-01-30T02:50:01;8.80;;;4.75;;
53881;SDS011;39794;55.782;37.452;2024-01-30T02:52:30;8.02;;;4.75;;
53881;SDS011;39794;55.782;37.452;2024-01-30T02:54:59;7.03;;;4.20;;
53881;SDS011;39794;55.782;37.452;2024-01-30T02:57:31;8.93;;;4.72;;
53881;SDS011;39794;55.782;37.452;2024-01-30T03:00:01;10.10;;;5.32;;
53881;SDS011;39794;55.782;37.452;2024-01-30T03:02:30;7.10;;;4.60;;
53881;SDS011;39794;55.782;37.452;2024-01-30T03:04:59;10.10;;;5.30;;
53881;SDS011;39794;55.782;37.452;2024-01-30T03:07:28;6.68;;;4.32;;
53881;SDS011;39794;55.782;37.452;2024-01-30T03:09:57;8.75;;;5.10;;
53881;SDS011;39794;55.782;37.452;2024-01-30T03:12:26;10.40;;;5.20;;
53881;SDS011;39794;55.782;37.452;2024-01-30T03:14:56;7.95;;;4.88;;
53881;SDS011;39794;55.782;37.452;2024-01-30T03:17:26;8.18;;;4.30;;
53881;SDS011;39794;55.782;37.452;2024-01-30T03:19:55;7.22;;;4.50;;
53881;SDS011;39794;55.782;37.452;2024-01-30T03:22:24;8.38;;;4.47;;
53881;SDS011;39794;55.782;37.452;2024-01-30T03:24:53;10.27;;;5.18;;
53881;SDS011;39794;55.782;37.452;2024-01-30T03:27:22;8.02;;;4.70;;
53881;SDS011;39794;55.782;37.452;2024-01-30T03:29:51;8.75;;;5.15;;
53881;SDS011;39794;55.782;37.452;2024-01-30T03:32:20;8.25;;;4.72;;
53881;SDS011;39794;55.782;37.452;2024-01-30T03:34:49;6.53;;;4.50;;
53881;SDS011;39794;55.782;37.452;2024-01-30T03:37:18;7.75;;;4.88;;
53881;SDS011;39794;55.782;37.452;2024-01-30T03:39:47;7.65;;;4.78;;
53881;SDS011;39794;55.782;37.452;2024-01-30T03:42:15;6.80;;;4.30;;
53881;SDS011;39794;55.782;37.452;2024-01-30T03:44:44;8.60;;;5.05;;
53881;SDS011;39794;55.782;37.452;2024-01-30T03:47:12;8.45;;;4.85;;
53881;SDS011;39794;55.782;37.452;2024-01-30T03:49:42;7.90;;;4.65;;
53881;SDS011;39794;55.782;37.452;2024-01-30T03:52:11;8.10;;;4.47;;
53881;SDS011;39794;55.782;37.452;2024-01-30T03:54:40;7.57;;;4.72;;
53881;SDS011;39794;55.782;37.452;2024-01-30T03:57:10;7.50;;;4.60;;
53881;SDS011;39794;55.782;37.452;2024-01-30T03:59:41;8.18;;;5.18;;
53881;SDS011;39794;55.782;37.452;2024-01-30T04:02:10;8.95;;;4.85;;
53881;SDS011;39794;55.782;37.452;2024-01-30T04:04:39;8.10;;;5.07;;
53881;SDS011;39794;55.782;37.452;2024-01-30T04:07:09;7.45;;;4.53;;
53881;SDS011;39794;55.782;37.452;2024-01-30T04:09:38;8.75;;;4.68;;
53881;SDS011;39794;55.782;37.452;2024-01-30T04:12:09;9.05;;;5.32;;
53881;SDS011;39794;55.782;37.452;2024-01-30T04:14:39;9.13;;;5.50;;
53881;SDS011;39794;55.782;37.452;2024-01-30T04:17:07;9.18;;;5.10;;
53881;SDS011;39794;55.782;37.452;2024-01-30T04:19:37;10.65;;;5.80;;
53881;SDS011;39794;55.782;37.452;2024-01-30T04:22:05;8.48;;;5.18;;
53881;SDS011;39794;55.782;37.452;2024-01-30T04:24:35;8.95;;;5.00;;
53881;SDS011;39794;55.782;37.452;2024-01-30T04:27:04;7.25;;;4.43;;
53881;SDS011;39794;55.782;37.452;2024-01-30T04:29:32;9.48;;;5.05;;
53881;SDS011;39794;55.782;37.452;2024-01-30T04:32:01;10.68;;;5.50;;
53881;SDS011;39794;55.782;37.452;2024-01-30T04:34:29;10.25;;;5.13;;
53881;SDS011;39794;55.782;37.452;2024-01-30T04:36:58;10.98;;;5.15;;
53881;SDS011;39794;55.782;37.452;2024-01-30T04:39:27;10.30;;;5.72;;
53881;SDS011;39794;55.782;37.452;2024-01-30T04:41:57;9.98;;;5.50;;
53881;SDS011;39794;55.782;37.452;2024-01-30T04:44:26;8.65;;;4.90;;
53881;SDS011;39794;55.782;37.452;2024-01-30T04:46:54;8.27;;;4.93;;
53881;SDS011;39794;55.782;37.452;2024-01-30T04:49:26;10.93;;;5.43;;
53881;SDS011;39794;55.782;37.452;2024-01-30T04:51:55;8.32;;;5.38;;
53881;SDS011;39794;55.782;37.452;2024-01-30T04:54:24;9.90;;;5.55;;
53881;SDS011;39794;55.782;37.452;2024-01-30T04:56:53;9.90;;;5.82;;
53881;SDS011;39794;55.782;37.452;2024-01-30T04:59:23;12.90;;;6.00;;
53881;SDS011;39794;55.782;37.452;2024-01-30T05:01:51;10.57;;;6.07;;
53881;SDS011;39794;55.782;37.452;2024-01-30T05:04:20;11.27;;;5.85;;
53881;SDS011;39794;55.782;37.452;2024-01-30T05:06:49;9.85;;;5.18;;
53881;SDS011;39794;55.782;37.452;2024-01-30T05:09:18;8.52;;;5.10;;
53881;SDS011;39794;55.782;37.452;2024-01-30T05:11:47;8.43;;;4.97;;
53881;SDS011;39794;55.782;37.452;2024-01-30T05:14:15;9.50;;;5.32;;
53881;SDS011;39794;55.782;37.452;2024-01-30T05:16:46;10.52;;;5.63;;
53881;SDS011;39794;55.782;37.452;2024-01-30T05:19:14;10.95;;;5.40;;
53881;SDS011;39794;55.782;37.452;2024-01-30T05:21:44;10.43;;;5.43;;
53881;SDS011;39794;55.782;37.452;2024-01-30T05:24:13;10.48;;;5.78;;
53881;SDS011;39794;55.782;37.452;2024-01-30T05:26:41;8.40;;;4.55;;
53881;SDS011;39794;55.782;37.452;2024-01-30T05:29:10;13.63;;;6.28;;
53881;SDS011;39794;55.782;37.452;2024-01-30T05:31:38;11.32;;;5.68;;
53881;SDS011;39794;55.782;37.452;2024-01-30T05:34:08;10.23;;;5.28;;
53881;SDS011;39794;55.782;37.452;2024-01-30T05:36:37;12.45;;;6.35;;
53881;SDS011;39794;55.782;37.452;2024-01-30T05:39:05;10.00;;;6.05;;
53881;SDS011;39794;55.782;37.452;2024-01-30T05:41:35;9.25;;;5.68;;
53881;SDS011;39794;55.782;37.452;2024-01-30T05:44:03;9.73;;;5.38;;
53881;SDS011;39794;55.782;37.452;2024-01-30T05:46:32;9.68;;;5.85;;
53881;SDS011;39794;55.782;37.452;2024-01-30T05:49:01;8.85;;;5.40;;
53881;SDS011;39794;55.782;37.452;2024-01-30T05:51:31;9.32;;;5.38;;
53881;SDS011;39794;55.782;37.452;2024-01-30T05:54:00;10.77;;;5.57;;
53881;SDS011;39794;55.782;37.452;2024-01-30T05:56:30;11.75;;;6.00;;
53881;SDS011;39794;55.782;37.452;2024-01-30T05:58:58;12.07;;;7.53;;
53881;SDS011;39794;55.782;37.452;2024-01-30T06:01:27;9.60;;;5.70;;
53881;SDS011;39794;55.782;37.452;2024-01-30T06:03:56;9.98;;;6.03;;
53881;SDS011;39794;55.782;37.452;2024-01-30T06:06:24;14.07;;;6.07;;
53881;SDS011;39794;55.782;37.452;2024-01-30T06:08:54;11.20;;;5.85;;
53881;SDS011;39794;55.782;37.452;2024-01-30T06:11:23;10.88;;;6.07;;
53881;SDS011;39794;55.782;37.452;2024-01-30T06:13:51;10.32;;;6.65;;
53881;SDS011;39794;55.782;37.452;2024-01-30T06:16:20;11.52;;;6.20;;
53881;SDS011;39794;55.782;37.452;2024-01-30T06:18:49;21.20;;;6.30;;
53881;SDS011;39794;55.782;37.452;2024-01-30T06:21:18;11.23;;;5.78;;
53881;SDS011;39794;55.782;37.452;2024-01-30T06:23:46;9.68;;;5.63;;
53881;SDS011;39794;55.782;37.452;2024-01-30T06:26:16;9.35;;;5.65;;
53881;SDS011;39794;55.782;37.452;2024-01-30T06:28:45;15.00;;;6.65;;
53881;SDS011;39794;55.782;37.452;2024-01-30T06:31:13;12.40;;;6.20;;
53881;SDS011;39794;55.782;37.452;2024-01-30T06:33:42;10.85;;;6.07;;
53881;SDS011;39794;55.782;37.452;2024-01-30T06:36:11;10.80;;;6.07;;
53881;SDS011;39794;55.782;37.452;2024-01-30T06:38:40;12.75;;;7.15;;
53881;SDS011;39794;55.782;37.452;2024-01-30T06:41:09;10.63;;;6.28;;
53881;SDS011;39794;55.782;37.452;2024-01-30T06:43:41;14.20;;;7.55;;
53881;SDS011;39794;55.782;37.452;2024-01-30T06:46:11;13.85;;;6.90;;
53881;SDS011;39794;55.782;37.452;2024-01-30T06:48:40;11.13;;;5.82;;
53881;SDS011;39794;55.782;37.452;2024-01-30T06:51:11;14.52;;;6.82;;
53881;SDS011;39794;55.782;37.452;2024-01-30T06:53:46;9.70;;;6.05;;
53881;SDS011;39794;55.782;37.452;2024-01-30T06:56:15;12.18;;;6.95;;
53881;SDS011;39794;55.782;37.452;2024-01-30T06:58:49;12.25;;;6.95;;
53881;SDS011;39794;55.782;37.452;2024-01-30T07:01:17;15.43;;;7.47;;
53881;SDS011;39794;55.782;37.452;2024-01-30T07:03:46;14.00;;;6.40;;
53881;SDS011;39794;55.782;37.452;2024-01-30T07:06:15;10.60;;;6.20;;
53881;SDS011;39794;55.782;37.452;2024-01-30T07:08:43;15.77;;;7.15;;
53881;SDS011;39794;55.782;37.452;2024-01-30T07:11:17;14.15;;;7.78;;
53881;SDS011;39794;55.782;37.452;2024-01-30T07:13:46;11.32;;;6.53;;
53881;SDS011;39794;55.782;37.452;2024-01-30T07:16:22;14.57;;;7.05;;
53881;SDS011;39794;55.782;37.452;2024-01-30T07:18:50;12.57;;;6.88;;
53881;SDS011;39794;55.782;37.452;2024-01-30T07:21:19;13.73;;;7.38;;
53881;SDS011;39794;55.782;37.452;2024-01-30T07:23:51;14.68;;;8.00;;
53881;SDS011;39794;55.782;37.452;2024-01-30T07:26:20;15.90;;;7.78;;
53881;SDS011;39794;55.782;37.452;2024-01-30T07:28:49;13.77;;;7.32;;
53881;SDS011;39794;55.782;37.452;2024-01-30T07:31:18;13.50;;;7.65;;
53881;SDS011;39794;55.782;37.452;2024-01-30T07:33:50;16.65;;;7.70;;
53881;SDS011;39794;55.782;37.452;2024-01-30T07:36:19;15.25;;;7.45;;
53881;SDS011;39794;55.782;37.452;2024-01-30T07:38:47;14.70;;;8.68;;
53881;SDS011;39794;55.782;37.452;2024-01-30T07:41:16;15.32;;;7.15;;
53881;SDS011;39794;55.782;37.452;2024-01-30T07:43:44;13.65;;;7.18;;
53881;SDS011;39794;55.782;37.452;2024-01-30T07:46:13;14.23;;;6.85;;
53881;SDS011;39794;55.782;37.452;2024-01-30T07:48:43;16.10;;;7.65;;
53881;SDS011;39794;55.782;37.452;2024-01-30T07:51:11;14.35;;;7.32;;
53881;SDS011;39794;55.782;37.452;2024-01-30T07:53:40;12.75;;;6.93;;
53881;SDS011;39794;55.782;37.452;2024-01-30T07:56:08;14.48;;;6.93;;
53881;SDS011;39794;55.782;37.452;2024-01-30T07:58:37;12.40;;;7.47;;
53881;SDS011;39794;55.782;37.452;2024-01-30T08:01:05;18.40;;;7.65;;
53881;SDS011;39794;55.782;37.452;2024-01-30T08:03:34;15.38;;;7.68;;
53881;SDS011;39794;55.782;37.452;2024-01-30T08:06:05;14.57;;;7.32;;
53881;SDS011;39794;55.782;37.452;2024-01-30T08:08:34;11.90;;;6.97;;
53881;SDS011;39794;55.782;37.452;2024-01-30T08:11:05;17.60;;;8.55;;
53881;SDS011;39794;55.782;37.452;2024-01-30T08:13:34;18.17;;;9.13;;
53881;SDS011;39794;55.782;37.452;2024-01-30T08:16:03;16.30;;;8.43;;
53881;SDS011;39794;55.782;37.452;2024-01-30T08:18:33;17.15;;;8.77;;
53881;SDS011;39794;55.782;37.452;2024-01-30T08:21:02;17.48;;;8.65;;
53881;SDS011;39794;55.782;37.452;2024-01-30T08:23:32;20.98;;;10.30;;
53881;SDS011;39794;55.782;37.452;2024-01-30T08:26:01;18.83;;;8.68;;
53881;SDS011;39794;55.782;37.452;2024-01-30T08:28:30;16.83;;;9.00;;
53881;SDS011;39794;55.782;37.452;2024-01-30T08:30:58;16.85;;;9.00;;
53881;SDS011;39794;55.782;37.452;2024-01-30T08:33:27;18.38;;;9.82;;
53881;SDS011;39794;55.782;37.452;2024-01-30T08:35:55;14.73;;;7.32;;
53881;SDS011;39794;55.782;37.452;2024-01-30T08:38:24;15.18;;;8.85;;
53881;SDS011;39794;55.782;37.452;2024-01-30T08:40:54;11.27;;;6.93;;
53881;SDS011;39794;55.782;37.452;2024-01-30T08:43:23;16.83;;;8.57;;
53881;SDS011;39794;55.782;37.452;2024-01-30T08:45:51;14.20;;;7.97;;
53881;SDS011;39794;55.782;37.452;2024-01-30T08:48:20;16.67;;;8.82;;
53881;SDS011;39794;55.782;37.452;2024-01-30T08:50:49;13.40;;;7.68;;
53881;SDS011;39794;55.782;37.452;2024-01-30T08:53:18;18.58;;;8.50;;
53881;SDS011;39794;55.782;37.452;2024-01-30T08:55:46;17.55;;;9.18;;
53881;SDS011;39794;55.782;37.452;2024-01-30T08:58:16;17.40;;;8.65;;
53881;SDS011;39794;55.782;37.452;2024-01-30T09:00:46;20.95;;;8.77;;
53881;SDS011;39794;55.782;37.452;2024-01-30T09:03:15;14.93;;;8.25;;
53881;SDS011;39794;55.782;37.452;2024-01-30T09:05:43;14.13;;;8.00;;
53881;SDS011;39794;55.782;37.452;2024-01-30T09:08:12;15.15;;;8.77;;
53881;SDS011;39794;55.782;37.452;2024-01-30T09:10:41;13.75;;;7.88;;
53881;SDS011;39794;55.782;37.452;2024-01-30T09:13:09;13.40;;;7.85;;
53881;SDS011;39794;55.782;37.452;2024-01-30T09:15:40;18.70;;;8.52;;
53881;SDS011;39794;55.782;37.452;2024-01-30T09:18:11;12.10;;;7.72;;
53881;SDS011;39794;55.782;37.452;2024-01-30T09:20:43;17.97;;;7.83;;
53881;SDS011;39794;55.782;37.452;2024-01-30T09:23:14;15.73;;;7.20;;
53881;SDS011;39794;55.782;37.452;2024-01-30T09:25:44;13.95;;;8.18;;
53881;SDS011;39794;55.782;37.452;2024-01-30T09:28:12;11.85;;;7.50;;
53881;SDS011;39794;55.782;37.452;2024-01-30T09:30:42;13.90;;;7.45;;
53881;SDS011;39794;55.782;37.452;2024-01-30T09:33:11;13.38;;;7.75;;
53881;SDS011;39794;55.782;37.452;2024-01-30T09:35:39;12.88;;;7.43;;
53881;SDS011;39794;55.782;37.452;2024-01-30T09:38:08;11.00;;;6.72;;
53881;SDS011;39794;55.782;37.452;2024-01-30T09:40:37;16.88;;;7.60;;
53881;SDS011;39794;55.782;37.452;2024-01-30T09:43:06;13.90;;;7.68;;
53881;SDS011;39794;55.782;37.452;2024-01-30T09:45:34;15.05;;;7.43;;
53881;SDS011;39794;55.782;37.452;2024-01-30T09:48:05;15.32;;;6.68;;
53881;SDS011;39794;55.782;37.452;2024-01-30T09:50:34;15.23;;;7.18;;
53881;SDS011;39794;55.782;37.452;2024-01-30T09:53:03;13.95;;;7.53;;
53881;SDS011;39794;55.782;37.452;2024-01-30T09:55:32;15.48;;;8.40;;
53881;SDS011;39794;55.782;37.452;2024-01-30T09:58:00;14.75;;;8.15;;
53881;SDS011;39794;55.782;37.452;2024-01-30T10:00:31;14.90;;;8.00;;
53881;SDS011;39794;55.782;37.452;2024-01-30T10:02:59;12.95;;;7.25;;
53881;SDS011;39794;55.782;37.452;2024-01-30T10:05:29;13.70;;;7.63;;
53881;SDS011;39794;55.782;37.452;2024-01-30T10:08:00;15.63;;;7.93;;
53881;SDS011;39794;55.782;37.452;2024-01-30T10:10:29;14.30;;;7.13;;
53881;SDS011;39794;55.782;37.452;2024-01-30T10:12:58;10.82;;;6.13;;
53881;SDS011;39794;55.782;37.452;2024-01-30T10:15:31;11.88;;;6.80;;
53881;SDS011;39794;55.782;37.452;2024-01-30T10:18:02;12.20;;;7.28;;
53881;SDS011;39794;55.782;37.452;2024-01-30T10:20:35;18.35;;;8.15;;
53881;SDS011;39794;55.782;37.452;2024-01-30T10:23:05;14.35;;;7.10;;
53881;SDS011;39794;55.782;37.452;2024-01-30T10:25:35;13.98;;;6.47;;
53881;SDS011;39794;55.782;37.452;2024-01-30T10:28:04;16.60;;;8.18;;
53881;SDS011;39794;55.782;37.452;2024-01-30T10:30:33;15.80;;;8.38;;
53881;SDS011;39794;55.782;37.452;2024-01-30T10:33:01;13.57;;;7.13;;
53881;SDS011;39794;55.782;37.452;2024-01-30T10:35:30;12.82;;;7.03;;
53881;SDS011;39794;55.782;37.452;2024-01-30T10:38:02;15.27;;;8.05;;
53881;SDS011;39794;55.782;37.452;2024-01-30T10:40:31;11.82;;;5.93;;
53881;SDS011;39794;55.782;37.452;2024-01-30T10:43:01;16.35;;;7.95;;
53881;SDS011;39794;55.782;37.452;2024-01-30T10:45:31;17.15;;;7.85;;
53881;SDS011;39794;55.782;37.452;2024-01-30T10:48:00;13.70;;;7.88;;
53881;SDS011;39794;55.782;37.452;2024-01-30T10:50:30;15.00;;;7.80;;
53881;SDS011;39794;55.782;37.452;2024-01-30T10:53:09;15.70;;;8.27;;
53881;SDS011;39794;55.782;37.452;2024-01-30T10:55:38;19.65;;;8.98;;
53881;SDS011;39794;55.782;37.452;2024-01-30T10:58:07;15.80;;;8.57;;
53881;SDS011;39794;55.782;37.452;2024-01-30T11:00:38;14.55;;;8.07;;
53881;SDS011;39794;55.782;37.452;2024-01-30T11:03:07;14.07;;;7.82;;
53881;SDS011;39794;55.782;37.452;2024-01-30T11:05:36;16.10;;;7.07;;
53881;SDS011;39794;55.782;37.452;2024-01-30T11:08:13;14.50;;;6.95;;
53881;SDS011;39794;55.782;37.452;2024-01-30T11:10:46;10.52;;;6.80;;
53881;SDS011;39794;55.782;37.452;2024-01-30T11:13:15;13.15;;;7.07;;
53881;SDS011;39794;55.782;37.452;2024-01-30T11:15:43;11.95;;;6.85;;
53881;SDS011;39794;55.782;37.452;2024-01-30T11:18:12;13.23;;;6.45;;
53881;SDS011;39794;55.782;37.452;2024-01-30T11:20:55;17.88;;;7.28;;
53881;SDS011;39794;55.782;37.452;2024-01-30T11:23:26;13.63;;;7.35;;
53881;SDS011;39794;55.782;37.452;2024-01-30T11:25:56;13.77;;;7.68;;
53881;SDS011;39794;55.782;37.452;2024-01-30T11:28:25;15.32;;;7.70;;
53881;SDS011;39794;55.782;37.452;2024-01-30T11:31:04;14.43;;;7.10;;
53881;SDS011;39794;55.782;37.452;2024-01-30T11:33:34;13.00;;;6.70;;
53881;SDS011;39794;55.782;37.452;2024-01-30T11:36:03;17.23;;;8.95;;
53881;SDS011;39794;55.782;37.452;2024-01-30T11:38:35;14.30;;;6.63;;
53881;SDS011;39794;55.782;37.452;2024-01-30T11:41:04;13.15;;;6.88;;
53881;SDS011;39794;55.782;37.452;2024-01-30T11:43:35;15.07;;;7.40;;
53881;SDS011;39794;55.782;37.452;2024-01-30T11:46:05;18.27;;;8.40;;
53881;SDS011;39794;55.782;37.452;2024-01-30T11:48:34;16.30;;;8.05;;
53881;SDS011;39794;55.782;37.452;2024-01-30T11:51:03;13.50;;;8.23;;
53881;SDS011;39794;55.782;37.452;2024-01-30T11:53:32;16.45;;;8.98;;
53881;SDS011;39794;55.782;37.452;2024-01-30T11:56:03;12.32;;;7.70;;
53881;SDS011;39794;55.782;37.452;2024-01-30T11:58:34;15.90;;;7.88;;
53881;SDS011;39794;55.782;37.452;2024-01-30T12:01:03;13.85;;;7.20;;
53881;SDS011;39794;55.782;37.452;2024-01-30T12:03:32;12.18;;;6.82;;
53881;SDS011;39794;55.782;37.452;2024-01-30T12:06:02;14.77;;;7.18;;
53881;SDS011;39794;55.782;37.452;2024-01-30T12:08:32;15.60;;;7.95;;
53881;SDS011;39794;55.782;37.452;2024-01-30T12:11:01;14.65;;;7.75;;
53881;SDS011;39794;55.782;37.452;2024-01-30T12:13:33;13.35;;;7.35;;
53881;SDS011;39794;55.782;37.452;2024-01-30T12:16:02;11.32;;;6.60;;
53881;SDS011;39794;55.782;37.452;2024-01-30T12:18:31;13.00;;;7.13;;
53881;SDS011;39794;55.782;37.452;2024-01-30T12:21:00;13.38;;;7.32;;
53881;SDS011;39794;55.782;37.452;2024-01-30T12:23:29;15.18;;;8.32;;
53881;SDS011;39794;55.782;37.452;2024-01-30T12:25:57;15.05;;;7.80;;
53881;SDS011;39794;55.782;37.452;2024-01-30T12:28:26;15.43;;;7.80;;
53881;SDS011;39794;55.782;37.452;2024-01-30T12:30:57;11.90;;;6.95;;
53881;SDS011;39794;55.782;37.452;2024-01-30T12:33:30;15.27;;;7.45;;
53881;SDS011;39794;55.782;37.452;2024-01-30T12:36:01;11.45;;;6.97;;
53881;SDS011;39794;55.782;37.452;2024-01-30T12:38:30;13.18;;;7.78;;
53881;SDS011;39794;55.782;37.452;2024-01-30T12:40:58;14.82;;;7.07;;
53881;SDS011;39794;55.782;37.452;2024-01-30T12:43:29;12.90;;;7.65;;
53881;SDS011;39794;55.782;37.452;2024-01-30T12:46:07;21.15;;;8.07;;
53881;SDS011;39794;55.782;37.452;2024-01-30T12:48:35;16.05;;;8.70;;
53881;SDS011;39794;55.782;37.452;2024-01-30T12:51:04;15.07;;;7.40;;
53881;SDS011;39794;55.782;37.452;2024-01-30T12:53:33;16.77;;;8.63;;
53881;SDS011;39794;55.782;37.452;2024-01-30T12:56:01;13.82;;;6.95;;
53881;SDS011;39794;55.782;37.452;2024-01-30T12:58:30;19.00;;;7.72;;
53881;SDS011;39794;55.782;37.452;2024-01-30T13:00:59;19.80;;;8.48;;
53881;SDS011;39794;55.782;37.452;2024-01-30T13:03:29;16.27;;;8.13;;
53881;SDS011;39794;55.782;37.452;2024-01-30T13:05:58;13.30;;;8.27;;
53881;SDS011;39794;55.782;37.452;2024-01-30T13:08:27;15.98;;;7.85;;
53881;SDS011;39794;55.782;37.452;2024-01-30T13:10:57;16.67;;;8.10;;
53881;SDS011;39794;55.782;37.452;2024-01-30T13:13:27;15.57;;;8.18;;
53881;SDS011;39794;55.782;37.452;2024-01-30T13:15:55;16.98;;;8.52;;
53881;SDS011;39794;55.782;37.452;2024-01-30T13:18:24;14.80;;;8.38;;
53881;SDS011;39794;55.782;37.452;2024-01-30T13:20:54;17.67;;;8.48;;
53881;SDS011;39794;55.782;37.452;2024-01-30T13:23:22;13.88;;;7.65;;
53881;SDS011;39794;55.782;37.452;2024-01-30T13:25:51;17.70;;;8.45;;
53881;SDS011;39794;55.782;37.452;2024-01-30T13:28:20;16.35;;;8.30;;
53881;SDS011;39794;55.782;37.452;2024-01-30T13:30:49;15.45;;;8.10;;
53881;SDS011;39794;55.782;37.452;2024-01-30T13:33:18;15.13;;;7.82;;
53881;SDS011;39794;55.782;37.452;2024-01-30T13:35:46;13.18;;;7.78;;
53881;SDS011;39794;55.782;37.452;2024-01-30T13:38:18;15.35;;;8.38;;
53881;SDS011;39794;55.782;37.452;2024-01-30T13:40:47;16.58;;;7.95;;
53881;SDS011;39794;55.782;37.452;2024-01-30T13:43:16;12.93;;;7.10;;
53881;SDS011;39794;55.782;37.452;2024-01-30T13:45:45;13.10;;;6.95;;
53881;SDS011;39794;55.782;37.452;2024-01-30T13:48:14;16.23;;;7.43;;
53881;SDS011;39794;55.782;37.452;2024-01-30T13:50:42;17.02;;;7.90;;
53881;SDS011;39794;55.782;37.452;2024-01-30T13:53:11;16.05;;;8.00;;
53881;SDS011;39794;55.782;37.452;2024-01-30T13:55:42;19.02;;;8.07;;
53881;SDS011;39794;55.782;37.452;2024-01-30T13:58:10;17.67;;;8.43;;
53881;SDS011;39794;55.782;37.452;2024-01-30T14:00:39;15.68;;;7.25;;
53881;SDS011;39794;55.782;37.452;2024-01-30T14:03:07;21.73;;;8.85;;
53881;SDS011;39794;55.782;37.452;2024-01-30T14:05:36;17.88;;;8.55;;
53881;SDS011;39794;55.782;37.452;2024-01-30T14:08:05;17.95;;;8.93;;
53881;SDS011;39794;55.782;37.452;2024-01-30T14:10:34;23.33;;;8.90;;
53881;SDS011;39794;55.782;37.452;2024-01-30T14:13:04;18.25;;;8.60;;
53881;SDS011;39794;55.782;37.452;2024-01-30T14:15:33;15.88;;;7.78;;
53881;SDS011;39794;55.782;37.452;2024-01-30T14:18:01;19.48;;;9.15;;
53881;SDS011;39794;55.782;37.452;2024-01-30T14:20:30;19.73;;;8.50;;
53881;SDS011;39794;55.782;37.452;2024-01-30T14:22:59;15.95;;;8.30;;
53881;SDS011;39794;55.782;37.452;2024-01-30T14:25:27;18.00;;;8.68;;
53881;SDS011;39794;55.782;37.452;2024-01-30T14:27:56;16.60;;;8.02;;
53881;SDS011;39794;55.782;37.452;2024-01-30T14:30:26;15.95;;;7.63;;
53881;SDS011;39794;55.782;37.452;2024-01-30T14:32:54;18.10;;;8.20;;
53881;SDS011;39794;55.782;37.452;2024-01-30T14:35:24;19.38;;;8.52;;
53881;SDS011;39794;55.782;37.452;2024-01-30T14:37:52;17.13;;;8.10;;